createdAt,value
2017-03-16T00:00:38.805Z,30.1
2017-03-16T00:01:37.513Z,30.1
2017-03-16T00:02:38.922Z,30.1
2017-03-16T00:03:37.367Z,30.1
2017-03-16T00:04:39.010Z,30.1
2017-03-16T00:05:39.162Z,30.1
2017-03-16T00:06:37.666Z,30.1
2017-03-16T00:07:39.445Z,30.1
2017-03-16T00:08:39.350Z,30.1
2017-03-16T00:09:39.225Z,30.1
2017-03-16T00:10:37.795Z,30.1
2017-03-16T00:11:37.883Z,30.1
2017-03-16T00:12:39.464Z,30.1
2017-03-16T00:13:38.214Z,30.1
2017-03-16T00:14:38.035Z,30.1
2017-03-16T00:15:37.954Z,30.1
2017-03-16T00:16:39.680Z,30.1
2017-03-16T00:17:38.097Z,30.1
2017-03-16T00:18:39.870Z,30.1
2017-03-16T00:19:38.492Z,30.1
2017-03-16T00:20:38.197Z,30.1
2017-03-16T00:21:38.222Z,30.1
2017-03-16T00:22:38.367Z,30.1
2017-03-16T00:23:39.923Z,30.1
2017-03-16T00:24:40.082Z,30.1
2017-03-16T00:25:38.586Z,30.1
2017-03-16T00:26:38.642Z,30.1
2017-03-16T00:27:40.229Z,30.1
2017-03-16T00:28:38.798Z,30.1
2017-03-16T00:29:40.364Z,30.1
2017-03-16T00:30:38.949Z,30.1
2017-03-16T00:31:39.033Z,30.1
2017-03-16T00:32:39.083Z,30.1
2017-03-16T00:33:40.631Z,30.1
2017-03-16T00:34:39.073Z,30.1
2017-03-16T00:35:39.100Z,30.1
2017-03-16T00:36:40.724Z,30.1
2017-03-16T00:37:39.454Z,30.1
2017-03-16T00:38:40.828Z,30.1
2017-03-16T00:39:39.333Z,30.1
2017-03-16T00:40:40.935Z,30.1
2017-03-16T00:41:41.016Z,30.1
2017-03-16T00:42:41.006Z,30.1
2017-03-16T00:43:41.211Z,30.1
2017-03-16T00:44:41.118Z,30.1
2017-03-16T00:45:41.164Z,30
2017-03-16T00:46:39.584Z,30.1
2017-03-16T00:47:41.250Z,30.1
2017-03-16T00:48:39.722Z,30.1
2017-03-16T00:49:41.426Z,30.1
2017-03-16T00:50:41.482Z,30.1
2017-03-16T00:51:39.838Z,30.1
2017-03-16T00:52:39.801Z,30
2017-03-16T00:53:39.862Z,30.1
2017-03-16T00:54:39.850Z,30.1
2017-03-16T00:55:41.941Z,30.1
2017-03-16T00:56:41.622Z,30.1
2017-03-16T00:57:40.187Z,30.1
2017-03-16T00:58:41.834Z,30.1
2017-03-16T00:59:40.231Z,30.1
2017-03-16T01:00:41.825Z,30.1
2017-03-16T01:01:40.425Z,30.1
2017-03-16T01:02:40.341Z,30
2017-03-16T01:03:41.957Z,30
2017-03-16T01:04:40.507Z,30
2017-03-16T01:05:42.077Z,30
2017-03-16T01:06:40.600Z,30
2017-03-16T01:07:42.449Z,30
2017-03-16T01:08:40.726Z,30
2017-03-16T01:09:40.691Z,30
2017-03-16T01:10:40.821Z,30
2017-03-16T01:11:40.872Z,30
2017-03-16T01:12:42.561Z,30
2017-03-16T01:13:42.728Z,30
2017-03-16T01:14:40.908Z,30
2017-03-16T01:15:42.608Z,30
2017-03-16T01:16:42.680Z,30
2017-03-16T01:17:41.022Z,30
2017-03-16T01:18:41.095Z,30
2017-03-16T01:19:41.414Z,30
2017-03-16T01:20:41.223Z,30
2017-03-16T01:21:42.965Z,30
2017-03-16T01:22:41.344Z,30
2017-03-16T01:23:41.494Z,30
2017-03-16T01:24:43.114Z,30
2017-03-16T01:25:43.369Z,30
2017-03-16T01:26:41.593Z,30
2017-03-16T01:27:43.248Z,30
2017-03-16T01:28:43.388Z,30
2017-03-16T01:29:43.479Z,30
2017-03-16T01:30:41.908Z,30
2017-03-16T01:31:42.128Z,30
2017-03-16T01:32:41.988Z,30
2017-03-16T01:33:42.072Z,30
2017-03-16T01:34:42.239Z,30
2017-03-16T01:35:43.739Z,30
2017-03-16T01:36:42.311Z,30
2017-03-16T01:37:44.082Z,30
2017-03-16T01:38:42.392Z,30
2017-03-16T01:39:44.045Z,30
2017-03-16T01:40:42.588Z,30
2017-03-16T01:41:44.050Z,30
2017-03-16T01:42:42.518Z,30
2017-03-16T01:43:44.360Z,30
2017-03-16T01:44:44.319Z,30
2017-03-16T01:45:42.821Z,30
2017-03-16T01:46:44.306Z,30
2017-03-16T01:47:42.789Z,30
2017-03-16T01:48:44.580Z,30
2017-03-16T01:49:43.253Z,30
2017-03-16T01:50:44.531Z,30
2017-03-16T01:51:44.669Z,30
2017-03-16T01:52:44.646Z,30
2017-03-16T01:53:44.722Z,30
2017-03-16T01:54:43.091Z,30
2017-03-16T01:55:44.917Z,30
2017-03-16T01:56:43.129Z,30
2017-03-16T01:57:46.875Z,30
2017-03-16T01:58:43.184Z,30
2017-03-16T01:59:44.915Z,29.9
2017-03-16T02:00:43.252Z,30
2017-03-16T02:01:45.078Z,30
2017-03-16T02:02:43.315Z,30
2017-03-16T02:03:44.976Z,30
2017-03-16T02:04:44.960Z,30
2017-03-16T02:05:45.125Z,30
2017-03-16T02:06:45.151Z,30
2017-03-16T02:07:45.377Z,30
2017-03-16T02:08:45.392Z,30
2017-03-16T02:09:45.282Z,30
2017-03-16T02:10:43.723Z,30
2017-03-16T02:11:45.347Z,30
2017-03-16T02:12:45.460Z,30
2017-03-16T02:13:45.686Z,30
2017-03-16T02:14:45.539Z,30
2017-03-16T02:15:45.626Z,30
2017-03-16T02:16:44.216Z,29.9
2017-03-16T02:17:44.178Z,30
2017-03-16T02:18:45.980Z,30
2017-03-16T02:19:44.463Z,30
2017-03-16T02:20:46.083Z,30
2017-03-16T02:21:44.365Z,30
2017-03-16T02:22:46.107Z,30
2017-03-16T02:23:44.575Z,30
2017-03-16T02:24:44.472Z,30
2017-03-16T02:25:46.389Z,30
2017-03-16T02:26:46.262Z,30
2017-03-16T02:27:46.211Z,30
2017-03-16T02:28:46.414Z,30
2017-03-16T02:29:44.763Z,30
2017-03-16T02:30:46.455Z,29.9
2017-03-16T02:31:46.570Z,29.9
2017-03-16T02:32:46.620Z,29.9
2017-03-16T02:33:45.028Z,29.9
2017-03-16T02:34:46.685Z,29.9
2017-03-16T02:35:45.185Z,29.9
2017-03-16T02:36:45.288Z,29.9
2017-03-16T02:37:47.009Z,29.9
2017-03-16T02:38:45.928Z,29.9
2017-03-16T02:39:46.987Z,29.9
2017-03-16T02:40:45.527Z,29.9
2017-03-16T02:41:45.595Z,29.9
2017-03-16T02:42:47.262Z,29.9
2017-03-16T02:43:48.104Z,29.9
2017-03-16T02:44:45.848Z,29.9
2017-03-16T02:45:47.273Z,29.9
2017-03-16T02:46:47.485Z,29.9
2017-03-16T02:47:45.781Z,29.9
2017-03-16T02:48:47.554Z,29.9
2017-03-16T02:49:47.635Z,29.9
2017-03-16T02:50:45.896Z,29.9
2017-03-16T02:51:47.560Z,29.9
2017-03-16T02:52:47.653Z,29.9
2017-03-16T02:53:47.682Z,29.9
2017-03-16T02:54:47.764Z,29.9
2017-03-16T02:55:48.045Z,29.9
2017-03-16T02:56:46.836Z,29.9
2017-03-16T02:57:48.006Z,29.9
2017-03-16T02:58:48.057Z,29.9
2017-03-16T02:59:53.006Z,29.9
2017-03-16T03:00:46.573Z,29.9
2017-03-16T03:01:48.292Z,29.9
2017-03-16T03:02:48.331Z,29.9
2017-03-16T03:03:46.689Z,29.9
2017-03-16T03:04:48.352Z,29.9
2017-03-16T03:05:48.427Z,29.9
2017-03-16T03:06:48.424Z,29.9
2017-03-16T03:07:48.835Z,29.9
2017-03-16T03:08:48.608Z,29.9
2017-03-16T03:09:48.612Z,29.9
2017-03-16T03:10:48.689Z,29.9
2017-03-16T03:11:47.010Z,29.9
2017-03-16T03:12:48.682Z,29.9
2017-03-16T03:13:49.122Z,29.9
2017-03-16T03:14:48.947Z,29.9
2017-03-16T03:15:48.888Z,29.9
2017-03-16T03:16:47.430Z,29.9
2017-03-16T03:17:47.417Z,29.9
2017-03-16T03:18:49.106Z,29.9
2017-03-16T03:19:49.303Z,29.9
2017-03-16T03:20:49.244Z,29.8
2017-03-16T03:21:47.674Z,29.8
2017-03-16T03:22:49.418Z,29.9
2017-03-16T03:23:49.555Z,29.9
2017-03-16T03:24:48.004Z,29.9
2017-03-16T03:25:49.709Z,29.9
2017-03-16T03:26:47.929Z,29.9
2017-03-16T03:27:49.584Z,29.9
2017-03-16T03:28:48.007Z,29.9
2017-03-16T03:29:48.202Z,29.8
2017-03-16T03:30:49.795Z,29.9
2017-03-16T03:31:48.394Z,29.9
2017-03-16T03:32:49.852Z,29.8
2017-03-16T03:33:50.068Z,29.8
2017-03-16T03:34:48.357Z,29.8
2017-03-16T03:35:48.350Z,29.8
2017-03-16T03:36:48.630Z,29.8
2017-03-16T03:37:50.441Z,29.8
2017-03-16T03:38:49.238Z,29.8
2017-03-16T03:39:50.175Z,29.8
2017-03-16T03:40:50.350Z,29.9
2017-03-16T03:41:50.313Z,29.8
2017-03-16T03:42:48.712Z,29.8
2017-03-16T03:43:50.641Z,29.8
2017-03-16T03:44:48.848Z,29.8
2017-03-16T03:45:50.492Z,29.8
2017-03-16T03:46:50.591Z,29.8
2017-03-16T03:47:49.019Z,29.8
2017-03-16T03:48:49.019Z,29.8
2017-03-16T03:49:49.456Z,29.8
2017-03-16T03:50:49.194Z,29.8
2017-03-16T03:51:49.336Z,29.8
2017-03-16T03:52:50.811Z,29.8
2017-03-16T03:53:51.027Z,29.8
2017-03-16T03:54:51.400Z,29.8
2017-03-16T03:55:51.135Z,29.8
2017-03-16T03:56:50.971Z,29.8
2017-03-16T03:57:49.481Z,29.8
2017-03-16T03:58:51.178Z,29.8
2017-03-16T03:59:51.187Z,29.8
2017-03-16T04:00:51.931Z,29.8
2017-03-16T04:01:54.354Z,29.8
2017-03-16T04:02:52.035Z,29.8
2017-03-16T04:03:53.776Z,29.8
2017-03-16T04:04:52.081Z,29.8
2017-03-16T04:05:51.965Z,29.8
2017-03-16T04:06:52.265Z,29.8
2017-03-16T04:07:53.902Z,29.8
2017-03-16T04:08:53.791Z,29.8
2017-03-16T04:09:54.008Z,29.8
2017-03-16T04:10:54.112Z,29.8
2017-03-16T04:11:52.569Z,29.8
2017-03-16T04:12:52.495Z,29.8
2017-03-16T04:13:54.103Z,29.8
2017-03-16T04:14:52.622Z,29.8
2017-03-16T04:15:54.055Z,29.8
2017-03-16T04:16:54.200Z,29.8
2017-03-16T04:17:52.668Z,29.8
2017-03-16T04:18:54.414Z,29.8
2017-03-16T04:19:54.440Z,29.8
2017-03-16T04:20:54.497Z,29.8
2017-03-16T04:21:52.864Z,29.8
2017-03-16T04:22:54.356Z,29.8
2017-03-16T04:23:54.564Z,29.8
2017-03-16T04:24:52.887Z,29.8
2017-03-16T04:25:53.051Z,29.8
2017-03-16T04:26:53.104Z,29.8
2017-03-16T04:27:54.833Z,29.8
2017-03-16T04:28:54.753Z,29.8
2017-03-16T04:29:53.237Z,29.9
2017-03-16T04:30:53.144Z,29.9
2017-03-16T04:31:53.214Z,29.9
2017-03-16T04:32:54.942Z,29.9
2017-03-16T04:33:55.075Z,29.9
2017-03-16T04:34:53.517Z,29.9
2017-03-16T04:35:55.139Z,29.9
2017-03-16T04:36:55.095Z,29.9
2017-03-16T04:37:53.501Z,29.9
2017-03-16T04:38:53.542Z,29.9
2017-03-16T04:39:55.347Z,29.9
2017-03-16T04:40:55.306Z,29.9
2017-03-16T04:41:53.816Z,29.9
2017-03-16T04:42:55.432Z,29.9
2017-03-16T04:43:55.439Z,29.9
2017-03-16T04:44:53.936Z,29.9
2017-03-16T04:45:53.966Z,29.9
2017-03-16T04:46:53.921Z,29.9
2017-03-16T04:47:53.927Z,29.9
2017-03-16T04:48:53.968Z,29.9
2017-03-16T04:49:54.148Z,29.9
2017-03-16T04:50:55.683Z,29.9
2017-03-16T04:51:54.295Z,29.9
2017-03-16T04:52:54.257Z,29.9
2017-03-16T04:53:56.088Z,29.8
2017-03-16T04:54:56.149Z,29.9
2017-03-16T04:55:56.084Z,29.9
2017-03-16T04:56:54.490Z,29.9
2017-03-16T04:57:56.195Z,29.9
2017-03-16T04:58:56.282Z,29.9
2017-03-16T04:59:54.752Z,29.9
2017-03-16T05:00:54.793Z,29.9
2017-03-16T05:01:54.701Z,29.8
2017-03-16T05:02:54.806Z,29.9
2017-03-16T05:03:54.820Z,29.8
2017-03-16T05:04:56.487Z,29.8
2017-03-16T05:05:54.904Z,29.8
2017-03-16T05:06:56.586Z,29.8
2017-03-16T05:07:55.114Z,29.8
2017-03-16T05:08:55.185Z,29.8
2017-03-16T05:09:56.719Z,29.8
2017-03-16T05:10:56.752Z,29.8
2017-03-16T05:11:55.264Z,29.8
2017-03-16T05:12:56.894Z,29.8
2017-03-16T05:13:55.209Z,29.8
2017-03-16T05:14:55.422Z,29.8
2017-03-16T05:15:55.294Z,29.8
2017-03-16T05:16:57.110Z,29.8
2017-03-16T05:17:57.248Z,29.8
2017-03-16T05:18:57.247Z,29.8
2017-03-16T05:19:55.681Z,29.8
2017-03-16T05:20:55.540Z,29.8
2017-03-16T05:21:57.257Z,29.8
2017-03-16T05:22:57.351Z,29.8
2017-03-16T05:23:55.960Z,29.8
2017-03-16T05:24:55.988Z,29.8
2017-03-16T05:25:57.424Z,29.8
2017-03-16T05:26:57.500Z,29.8
2017-03-16T05:27:57.636Z,29.8
2017-03-16T05:28:56.110Z,29.8
2017-03-16T05:29:57.716Z,29.8
2017-03-16T05:30:56.021Z,29.8
2017-03-16T05:31:56.177Z,29.8
2017-03-16T05:32:57.743Z,29.8
2017-03-16T05:33:56.299Z,29.8
2017-03-16T05:34:56.368Z,29.7
2017-03-16T05:35:57.879Z,29.8
2017-03-16T05:36:57.939Z,29.8
2017-03-16T05:37:56.575Z,29.8
2017-03-16T05:38:56.673Z,29.7
2017-03-16T05:39:58.165Z,29.8
2017-03-16T05:40:56.524Z,29.8
2017-03-16T05:41:56.509Z,29.8
2017-03-16T05:42:56.771Z,29.8
2017-03-16T05:43:58.341Z,29.8
2017-03-16T05:44:57.390Z,29.8
2017-03-16T05:45:58.462Z,29.8
2017-03-16T05:46:58.489Z,29.8
2017-03-16T05:47:56.837Z,29.8
2017-03-16T05:48:56.937Z,29.8
2017-03-16T05:49:56.840Z,29.8
2017-03-16T05:50:58.519Z,29.8
2017-03-16T05:51:58.564Z,29.8
2017-03-16T05:52:58.764Z,29.8
2017-03-16T05:53:58.692Z,29.9
2017-03-16T05:54:57.120Z,29.9
2017-03-16T05:55:58.719Z,29.9
2017-03-16T05:56:58.362Z,29.7
2017-03-16T05:57:58.912Z,29.5
2017-03-16T05:58:58.968Z,29.2
2017-03-16T05:59:57.287Z,29
2017-03-16T06:00:57.467Z,28.8
2017-03-16T06:01:57.328Z,28.6
2017-03-16T06:02:57.426Z,28.4
2017-03-16T06:03:59.047Z,28.2
2017-03-16T06:04:59.152Z,28
2017-03-16T06:05:59.140Z,27.8
2017-03-16T06:06:57.742Z,27.7
2017-03-16T06:07:59.356Z,27.6
2017-03-16T06:08:57.673Z,27.5
2017-03-16T06:09:57.693Z,27.3
2017-03-16T06:10:59.255Z,27.2
2017-03-16T06:11:59.283Z,27.1
2017-03-16T06:12:59.331Z,27
2017-03-16T06:13:57.998Z,27
2017-03-16T06:14:57.885Z,26.9
2017-03-16T06:15:58.042Z,26.9
2017-03-16T06:16:58.066Z,26.9
2017-03-16T06:17:59.647Z,27
2017-03-16T06:18:59.720Z,27
2017-03-16T06:19:59.699Z,27
2017-03-16T06:20:58.319Z,27.1
2017-03-16T06:21:59.779Z,27.1
2017-03-16T06:22:59.930Z,27.2
2017-03-16T06:23:58.297Z,27.2
2017-03-16T06:25:00.033Z,27.2
2017-03-16T06:26:00.349Z,27.3
2017-03-16T06:26:59.063Z,27.3
2017-03-16T06:27:58.626Z,27.4
2017-03-16T06:29:00.095Z,27.4
2017-03-16T06:29:58.515Z,27.5
2017-03-16T06:31:00.274Z,27.5
2017-03-16T06:31:59.796Z,27.5
2017-03-16T06:33:00.292Z,27.4
2017-03-16T06:34:12.597Z,27.5
2017-03-16T06:34:58.788Z,27.4
2017-03-16T06:35:58.862Z,27.4
2017-03-16T06:37:00.637Z,27.4
2017-03-16T06:38:01.830Z,27.4
2017-03-16T06:39:03.372Z,27.4
2017-03-16T06:40:07.482Z,27.4
2017-03-16T06:40:59.713Z,27.4
2017-03-16T06:42:02.912Z,27.5
2017-03-16T06:43:02.221Z,27.5
2017-03-16T06:44:04.159Z,27.5
2017-03-16T06:45:01.441Z,27.5
2017-03-16T06:46:02.310Z,27.5
2017-03-16T06:47:06.073Z,27.4
2017-03-16T06:48:02.900Z,27.4
2017-03-16T06:48:59.473Z,27.4
2017-03-16T06:49:58.932Z,27.5
2017-03-16T06:50:57.220Z,27.5
2017-03-16T06:51:58.866Z,27.5
2017-03-16T06:52:57.336Z,27.5
2017-03-16T06:53:57.486Z,27.5
2017-03-16T06:54:57.566Z,27.5
2017-03-16T06:55:57.508Z,27.5
2017-03-16T06:56:57.598Z,27.5
2017-03-16T06:57:57.700Z,27.5
2017-03-16T06:58:59.155Z,27.6
2017-03-16T06:59:57.709Z,27.6
2017-03-16T07:02:09.024Z,27.6
2017-03-16T07:03:08.806Z,27.6
2017-03-16T07:04:08.846Z,27.6
2017-03-16T07:05:07.328Z,27.6
2017-03-16T07:06:08.996Z,27.7
2017-03-16T07:07:07.523Z,27.7
2017-03-16T07:08:07.558Z,27.8
2017-03-16T07:09:09.141Z,27.8
2017-03-16T07:10:10.934Z,27.9
2017-03-16T07:11:07.596Z,27.9
2017-03-16T07:12:09.216Z,27.9
2017-03-16T07:13:09.220Z,27.9
2017-03-16T07:14:10.634Z,27.9
2017-03-16T07:15:09.574Z,27.9
2017-03-16T07:16:09.361Z,27.9
2017-03-16T07:17:07.791Z,27.9
2017-03-16T07:18:07.945Z,28
2017-03-16T07:19:07.962Z,28
2017-03-16T07:20:07.823Z,28
2017-03-16T07:21:09.447Z,27.9
2017-03-16T07:22:08.554Z,28
2017-03-16T07:23:09.628Z,28
2017-03-16T07:24:09.698Z,28
2017-03-16T07:25:09.720Z,28.1
2017-03-16T07:26:08.020Z,28.1
2017-03-16T07:27:09.628Z,28.1
2017-03-16T07:28:08.111Z,28.2
2017-03-16T07:29:08.575Z,28.2
2017-03-16T07:30:08.454Z,28.2
2017-03-16T07:31:08.300Z,28.2
2017-03-16T07:32:09.624Z,28.2
2017-03-16T07:33:08.410Z,28.2
2017-03-16T07:34:10.201Z,28.2
2017-03-16T07:35:08.596Z,28.2
2017-03-16T07:36:10.172Z,28.2
2017-03-16T07:37:08.551Z,28.3
2017-03-16T07:38:11.196Z,28.3
2017-03-16T07:39:09.310Z,28.3
2017-03-16T07:40:10.339Z,28.4
2017-03-16T07:41:08.801Z,28.4
2017-03-16T07:42:08.854Z,28.5
2017-03-16T07:43:08.969Z,28.5
2017-03-16T07:44:09.064Z,28.5
2017-03-16T07:45:10.662Z,28.5
2017-03-16T07:46:09.642Z,28.4
2017-03-16T07:47:11.781Z,28.4
2017-03-16T07:48:09.260Z,28.3
2017-03-16T07:49:10.818Z,28.2
2017-03-16T07:50:09.307Z,28.1
2017-03-16T07:51:10.907Z,28
2017-03-16T07:52:09.297Z,27.8
2017-03-16T07:53:11.683Z,27.8
2017-03-16T07:54:09.968Z,27.7
2017-03-16T07:55:09.436Z,27.6
2017-03-16T07:56:09.607Z,27.6
2017-03-16T07:57:09.610Z,27.5
2017-03-16T07:58:11.274Z,27.5
2017-03-16T07:59:12.119Z,27.4
2017-03-16T08:00:09.837Z,27.4
2017-03-16T08:01:10.163Z,27.3
2017-03-16T08:02:11.505Z,27.3
2017-03-16T08:03:11.552Z,27.4
2017-03-16T08:04:12.156Z,27.4
2017-03-16T08:05:12.293Z,27.6
2017-03-16T08:06:11.630Z,27.7
2017-03-16T08:07:11.593Z,28
2017-03-16T08:08:11.803Z,28.2
2017-03-16T08:09:10.878Z,28.4
2017-03-16T08:10:10.240Z,28.6
2017-03-16T08:11:12.365Z,28.9
2017-03-16T08:12:10.289Z,29.2
2017-03-16T08:13:11.921Z,29.4
2017-03-16T08:14:10.457Z,29.6
2017-03-16T08:15:11.465Z,29.8
2017-03-16T08:16:10.525Z,29.9
2017-03-16T08:17:10.743Z,29.9
2017-03-16T08:18:12.423Z,29.9
2017-03-16T08:19:11.335Z,29.9
2017-03-16T08:20:13.924Z,29.9
2017-03-16T08:21:10.812Z,29.9
2017-03-16T08:22:13.935Z,29.9
2017-03-16T08:23:12.473Z,29.9
2017-03-16T08:24:12.300Z,29.8
2017-03-16T08:25:14.871Z,29.8
2017-03-16T08:26:12.370Z,29.7
2017-03-16T08:27:12.827Z,29.7
2017-03-16T08:28:11.129Z,29.6
2017-03-16T08:29:12.770Z,29.6
2017-03-16T08:30:12.820Z,29.6
2017-03-16T08:31:11.189Z,29.5
2017-03-16T08:32:12.797Z,29.5
2017-03-16T08:33:11.308Z,29.5
2017-03-16T08:34:13.482Z,29.5
2017-03-16T08:35:13.036Z,29.5
2017-03-16T08:36:11.522Z,29.5
2017-03-16T08:37:11.498Z,29.5
2017-03-16T08:38:14.556Z,29.5
2017-03-16T08:39:11.646Z,29.4
2017-03-16T08:40:13.341Z,29.4
2017-03-16T08:41:11.864Z,29.4
2017-03-16T08:42:11.859Z,29.4
2017-03-16T08:43:11.938Z,29.4
2017-03-16T08:44:13.164Z,29.4
2017-03-16T08:45:12.053Z,29.4
2017-03-16T08:46:13.728Z,29.4
2017-03-16T08:47:13.625Z,29.4
2017-03-16T08:48:14.312Z,29.4
2017-03-16T08:49:13.769Z,29.4
2017-03-16T08:50:13.689Z,29.4
2017-03-16T08:51:13.742Z,29.4
2017-03-16T08:52:12.235Z,29.4
2017-03-16T08:53:12.401Z,29.5
2017-03-16T08:54:14.019Z,29.4
2017-03-16T08:55:14.003Z,29.4
2017-03-16T08:56:12.400Z,29.4
2017-03-16T08:57:13.581Z,29.4
2017-03-16T08:58:13.354Z,29.3
2017-03-16T08:59:12.630Z,29.3
2017-03-16T09:00:15.012Z,29.2
2017-03-16T09:01:15.658Z,29.2
2017-03-16T09:02:14.931Z,29.1
2017-03-16T09:03:14.405Z,29.1
2017-03-16T09:04:12.879Z,29.1
2017-03-16T09:05:14.460Z,29.1
2017-03-16T09:06:14.555Z,29
2017-03-16T09:07:13.107Z,29.1
2017-03-16T09:08:13.060Z,29
2017-03-16T09:09:15.487Z,29.1
2017-03-16T09:10:13.794Z,29.1
2017-03-16T09:11:13.207Z,29.1
2017-03-16T09:12:14.942Z,29.1
2017-03-16T09:13:13.412Z,29.2
2017-03-16T09:14:13.364Z,29.2
2017-03-16T09:15:13.459Z,29.3
2017-03-16T09:16:15.844Z,29.3
2017-03-16T09:17:13.991Z,29.3
2017-03-16T09:18:13.509Z,29.3
2017-03-16T09:19:13.513Z,29.4
2017-03-16T09:20:14.298Z,29.4
2017-03-16T09:21:15.566Z,29.4
2017-03-16T09:22:14.458Z,29.5
2017-03-16T09:23:15.295Z,29.5
2017-03-16T09:24:16.040Z,29.5
2017-03-16T09:25:17.161Z,29.5
2017-03-16T09:26:15.511Z,29.5
2017-03-16T09:27:15.559Z,29.5
2017-03-16T09:28:13.958Z,29.6
2017-03-16T09:29:15.627Z,29.6
2017-03-16T09:30:15.650Z,29.6
2017-03-16T09:31:14.274Z,29.6
2017-03-16T09:32:16.523Z,29.6
2017-03-16T09:33:19.028Z,29.7
2017-03-16T09:34:14.282Z,29.7
2017-03-16T09:35:16.008Z,29.7
2017-03-16T09:36:14.491Z,29.8
2017-03-16T09:37:16.110Z,29.8
2017-03-16T09:38:17.320Z,29.9
2017-03-16T09:39:14.446Z,29.9
2017-03-16T09:40:16.694Z,29.9
2017-03-16T09:41:16.182Z,29.9
2017-03-16T09:42:15.139Z,29.9
2017-03-16T09:43:16.672Z,29.9
2017-03-16T09:44:16.362Z,29.9
2017-03-16T09:45:17.002Z,29.9
2017-03-16T09:46:15.407Z,29.9
2017-03-16T09:47:16.984Z,29.9
2017-03-16T09:48:16.505Z,29.9
2017-03-16T09:49:16.505Z,30
2017-03-16T09:50:15.614Z,30
2017-03-16T09:51:16.606Z,30
2017-03-16T09:52:15.138Z,30
2017-03-16T09:53:15.078Z,30
2017-03-16T09:54:15.868Z,30
2017-03-16T09:55:15.854Z,30
2017-03-16T09:56:16.970Z,30.1
2017-03-16T09:57:17.548Z,30.1
2017-03-16T09:58:16.962Z,30.1
2017-03-16T09:59:17.140Z,30.1
2017-03-16T10:00:17.638Z,30.2
2017-03-16T10:01:17.535Z,30.2
2017-03-16T10:02:17.963Z,30.2
2017-03-16T10:03:17.910Z,30.2
2017-03-16T10:04:17.363Z,30.2
2017-03-16T10:05:15.881Z,30.2
2017-03-16T10:06:16.986Z,30.2
2017-03-16T10:07:21.400Z,30.2
2017-03-16T10:08:16.648Z,30.2
2017-03-16T10:09:18.362Z,30.2
2017-03-16T10:10:17.611Z,30.2
2017-03-16T10:11:16.704Z,30.1
2017-03-16T10:12:21.436Z,30.1
2017-03-16T10:13:18.492Z,30.1
2017-03-16T10:14:18.775Z,30
2017-03-16T10:15:16.366Z,30
2017-03-16T10:16:16.452Z,30
2017-03-16T10:17:18.995Z,30
2017-03-16T10:18:18.668Z,30
2017-03-16T10:19:18.527Z,30
2017-03-16T10:20:16.459Z,30.1
2017-03-16T10:21:18.140Z,30
2017-03-16T10:22:20.044Z,30
2017-03-16T10:23:20.456Z,30
2017-03-16T10:24:19.648Z,30
2017-03-16T10:25:17.428Z,30
2017-03-16T10:26:17.555Z,30
2017-03-16T10:27:19.827Z,30
2017-03-16T10:28:19.245Z,30
2017-03-16T10:29:17.035Z,30
2017-03-16T10:30:20.083Z,30
2017-03-16T10:31:18.323Z,30
2017-03-16T10:32:19.896Z,30
2017-03-16T10:33:19.581Z,30
2017-03-16T10:34:21.558Z,30
2017-03-16T10:35:17.974Z,30
2017-03-16T10:36:17.342Z,30
2017-03-16T10:37:18.138Z,30
2017-03-16T10:38:19.131Z,30
2017-03-16T10:39:17.593Z,30
2017-03-16T10:40:19.066Z,30
2017-03-16T10:41:19.810Z,30.1
2017-03-16T10:42:19.992Z,30.1
2017-03-16T10:43:18.992Z,30.2
2017-03-16T10:44:19.659Z,30.2
2017-03-16T10:45:20.029Z,30.3
2017-03-16T10:46:20.001Z,30.4
2017-03-16T10:47:18.566Z,30.5
2017-03-16T10:48:18.099Z,30.5
2017-03-16T10:49:19.742Z,30.6
2017-03-16T10:50:18.818Z,30.7
2017-03-16T10:51:18.127Z,30.7
2017-03-16T10:52:19.836Z,30.8
2017-03-16T10:53:19.937Z,30.8
2017-03-16T10:54:18.292Z,30.9
2017-03-16T10:55:20.872Z,30.9
2017-03-16T10:56:20.487Z,30.9
2017-03-16T10:57:18.435Z,31
2017-03-16T10:58:18.422Z,31
2017-03-16T10:59:20.114Z,31.1
2017-03-16T11:00:18.769Z,31.1
2017-03-16T11:01:21.188Z,31.1
2017-03-16T11:02:20.578Z,31.2
2017-03-16T11:03:20.690Z,31.2
2017-03-16T11:04:21.346Z,31.2
2017-03-16T11:05:20.592Z,31.2
2017-03-16T11:06:21.377Z,31.2
2017-03-16T11:07:20.679Z,31.2
2017-03-16T11:08:19.213Z,31.1
2017-03-16T11:09:19.209Z,31.1
2017-03-16T11:10:19.286Z,31.2
2017-03-16T11:11:21.715Z,31.3
2017-03-16T11:12:20.028Z,31.3
2017-03-16T11:13:19.366Z,31.4
2017-03-16T11:14:23.700Z,31.4
2017-03-16T11:15:20.987Z,31.5
2017-03-16T11:16:19.425Z,31.5
2017-03-16T11:17:20.314Z,31.5
2017-03-16T11:18:20.137Z,31.5
2017-03-16T11:19:19.640Z,31.4
2017-03-16T11:20:21.873Z,31.5
2017-03-16T11:21:19.686Z,31.5
2017-03-16T11:22:19.886Z,31.5
2017-03-16T11:23:21.379Z,31.5
2017-03-16T11:24:22.038Z,31.5
2017-03-16T11:25:21.702Z,31.6
2017-03-16T11:26:21.643Z,31.6
2017-03-16T11:27:21.421Z,31.7
2017-03-16T11:28:20.251Z,31.7
2017-03-16T11:29:22.430Z,31.8
2017-03-16T11:30:20.904Z,31.8
2017-03-16T11:31:20.163Z,31.8
2017-03-16T11:32:21.923Z,31.8
2017-03-16T11:33:23.794Z,31.8
2017-03-16T11:34:23.226Z,31.7
2017-03-16T11:35:20.080Z,31.8
2017-03-16T11:36:20.785Z,31.8
2017-03-16T11:37:22.525Z,31.8
2017-03-16T11:38:20.919Z,31.9
2017-03-16T11:39:21.057Z,31.9
2017-03-16T11:40:21.624Z,31.9
2017-03-16T11:41:24.099Z,31.9
2017-03-16T11:42:22.300Z,31.9
2017-03-16T11:43:25.621Z,31.8
2017-03-16T11:44:24.128Z,31.8
2017-03-16T11:45:22.316Z,31.8
2017-03-16T11:46:24.246Z,31.8
2017-03-16T11:47:27.038Z,31.8
2017-03-16T11:48:23.503Z,31.9
2017-03-16T11:49:25.236Z,31.9
2017-03-16T11:50:20.963Z,31.9
2017-03-16T11:51:22.399Z,32
2017-03-16T11:52:23.912Z,32
2017-03-16T11:53:20.968Z,32
2017-03-16T11:54:25.018Z,32.1
2017-03-16T11:55:24.994Z,32.1
2017-03-16T11:56:21.673Z,32
2017-03-16T11:57:24.126Z,32.1
2017-03-16T11:58:22.673Z,32.1
2017-03-16T11:59:23.948Z,32.1
2017-03-16T12:00:23.567Z,32.1
2017-03-16T12:01:21.707Z,32.1
2017-03-16T12:02:21.728Z,32.1
2017-03-16T12:03:21.576Z,32.1
2017-03-16T12:04:24.193Z,32.2
2017-03-16T12:05:23.902Z,32.2
2017-03-16T12:06:22.793Z,32.2
2017-03-16T12:07:24.976Z,32.2
2017-03-16T12:08:23.322Z,32.3
2017-03-16T12:09:21.746Z,32.3
2017-03-16T12:10:24.011Z,32.3
2017-03-16T12:11:22.415Z,32.3
2017-03-16T12:12:24.174Z,32.3
2017-03-16T12:13:24.339Z,32.3
2017-03-16T12:14:22.774Z,32.3
2017-03-16T12:15:23.561Z,32.3
2017-03-16T12:16:25.258Z,32.3
2017-03-16T12:17:26.871Z,32.3
2017-03-16T12:18:22.864Z,32.3
2017-03-16T12:19:28.354Z,32.3
2017-03-16T12:20:24.078Z,32.4
2017-03-16T12:21:28.546Z,32.4
2017-03-16T12:22:24.192Z,32.3
2017-03-16T12:23:25.275Z,32.3
2017-03-16T12:24:25.597Z,32.4
2017-03-16T12:25:24.282Z,32.4
2017-03-16T12:26:24.433Z,32.4
2017-03-16T12:27:25.096Z,32.3
2017-03-16T12:28:25.040Z,32.3
2017-03-16T12:29:24.617Z,32.3
2017-03-16T12:30:27.427Z,32.3
2017-03-16T12:31:25.987Z,32.3
2017-03-16T12:32:26.107Z,32.3
2017-03-16T12:33:23.194Z,32.3
2017-03-16T12:34:24.970Z,32.3
2017-03-16T12:35:26.374Z,32.4
2017-03-16T12:36:25.568Z,32.4
2017-03-16T12:37:25.001Z,32.4
2017-03-16T12:38:26.291Z,32.4
2017-03-16T12:39:23.723Z,32.4
2017-03-16T12:40:23.639Z,32.4
2017-03-16T12:41:26.017Z,32.4
2017-03-16T12:42:25.400Z,32.4
2017-03-16T12:43:23.879Z,32.4
2017-03-16T12:44:24.473Z,32.4
2017-03-16T12:45:24.188Z,32.4
2017-03-16T12:46:26.313Z,32.4
2017-03-16T12:47:29.793Z,32.3
2017-03-16T12:48:25.772Z,32.3
2017-03-16T12:49:26.359Z,32.3
2017-03-16T12:50:25.531Z,32.3
2017-03-16T12:51:25.732Z,32.3
2017-03-16T12:52:25.870Z,32.3
2017-03-16T12:53:25.885Z,32.2
2017-03-16T12:54:25.997Z,32.3
2017-03-16T12:55:25.141Z,32.3
2017-03-16T12:56:26.280Z,32.3
2017-03-16T12:57:27.230Z,32.3
2017-03-16T12:58:25.212Z,32.3
2017-03-16T12:59:26.424Z,32.3
2017-03-16T13:00:26.948Z,32.3
2017-03-16T13:01:24.699Z,32.3
2017-03-16T13:02:25.338Z,32.3
2017-03-16T13:03:26.548Z,32.3
2017-03-16T13:04:26.642Z,32.4
2017-03-16T13:05:26.697Z,32.4
2017-03-16T13:06:25.055Z,32.4
2017-03-16T13:07:27.318Z,32.4
2017-03-16T13:08:26.879Z,32.4
2017-03-16T13:09:25.170Z,32.5
2017-03-16T13:10:27.509Z,32.5
2017-03-16T13:11:25.346Z,32.5
2017-03-16T13:12:26.187Z,32.6
2017-03-16T13:13:25.470Z,32.6
2017-03-16T13:14:27.154Z,32.6
2017-03-16T13:15:28.315Z,32.7
2017-03-16T13:16:27.359Z,32.7
2017-03-16T13:17:27.335Z,32.6
2017-03-16T13:18:28.140Z,32.6
2017-03-16T13:19:27.444Z,32.6
2017-03-16T13:20:28.198Z,32.7
2017-03-16T13:21:28.150Z,32.7
2017-03-16T13:22:27.432Z,32.7
2017-03-16T13:23:27.535Z,32.8
2017-03-16T13:24:28.539Z,32.7
2017-03-16T13:25:28.216Z,32.7
2017-03-16T13:26:26.571Z,32.8
2017-03-16T13:27:31.384Z,32.8
2017-03-16T13:28:27.805Z,32.8
2017-03-16T13:29:27.869Z,32.8
2017-03-16T13:30:28.050Z,32.8